sensor_id;sensor_type;location;lat;lon;timestamp;temperature;humidity
71084;DHT22;58741;52.672;13.548;2023-05-27T00:01:04;8.40;93.10
71084;DHT22;58741;52.672;13.548;2023-05-27T00:03:29;8.40;93.30
71084;DHT22;58741;52.672;13.548;2023-05-27T00:05:55;8.30;93.70
71084;DHT22;58741;52.672;13.548;2023-05-27T00:08:21;8.30;93.90
71084;DHT22;58741;52.672;13.548;2023-05-27T00:10:46;8.20;94.20
71084;DHT22;58741;52.672;13.548;2023-05-27T00:13:13;8.20;94.20
71084;DHT22;58741;52.672;13.548;2023-05-27T00:15:40;8.20;94.30
71084;DHT22;58741;52.672;13.548;2023-05-27T00:18:06;8.20;94.60
71084;DHT22;58741;52.672;13.548;2023-05-27T00:20:32;8.10;94.70
71084;DHT22;58741;52.672;13.548;2023-05-27T00:22:58;8.10;94.70
71084;DHT22;58741;52.672;13.548;2023-05-27T00:25:25;8.00;95.00
71084;DHT22;58741;52.672;13.548;2023-05-27T00:27:51;8.00;94.90
71084;DHT22;58741;52.672;13.548;2023-05-27T00:30:17;8.00;95.10
71084;DHT22;58741;52.672;13.548;2023-05-27T00:32:43;8.00;95.10
71084;DHT22;58741;52.672;13.548;2023-05-27T00:35:09;7.90;95.00
71084;DHT22;58741;52.672;13.548;2023-05-27T00:37:35;7.90;94.80
71084;DHT22;58741;52.672;13.548;2023-05-27T00:40:01;7.90;95.00
71084;DHT22;58741;52.672;13.548;2023-05-27T00:42:26;7.80;94.90
71084;DHT22;58741;52.672;13.548;2023-05-27T00:44:52;7.80;94.70
71084;DHT22;58741;52.672;13.548;2023-05-27T00:47:18;7.70;95.00
71084;DHT22;58741;52.672;13.548;2023-05-27T00:49:45;7.70;95.20
71084;DHT22;58741;52.672;13.548;2023-05-27T00:52:11;7.70;95.10
71084;DHT22;58741;52.672;13.548;2023-05-27T00:54:41;7.60;95.30
71084;DHT22;58741;52.672;13.548;2023-05-27T00:57:07;7.60;95.40
71084;DHT22;58741;52.672;13.548;2023-05-27T00:59:33;7.60;95.40
71084;DHT22;58741;52.672;13.548;2023-05-27T01:01:59;7.50;95.50
71084;DHT22;58741;52.672;13.548;2023-05-27T01:04:25;7.50;95.30
71084;DHT22;58741;52.672;13.548;2023-05-27T01:09:35;7.40;95.60
71084;DHT22;58741;52.672;13.548;2023-05-27T01:14:37;7.40;95.50
71084;DHT22;58741;52.672;13.548;2023-05-27T01:17:05;7.30;95.50
71084;DHT22;58741;52.672;13.548;2023-05-27T01:19:37;7.30;95.60
71084;DHT22;58741;52.672;13.548;2023-05-27T01:22:07;7.20;95.60
71084;DHT22;58741;52.672;13.548;2023-05-27T01:24:33;7.20;95.70
71084;DHT22;58741;52.672;13.548;2023-05-27T01:26:59;7.20;95.80
71084;DHT22;58741;52.672;13.548;2023-05-27T01:29:27;7.10;95.90
71084;DHT22;58741;52.672;13.548;2023-05-27T01:32:12;7.10;95.80
71084;DHT22;58741;52.672;13.548;2023-05-27T01:34:51;7.00;96.00
71084;DHT22;58741;52.672;13.548;2023-05-27T01:37:19;7.00;96.10
71084;DHT22;58741;52.672;13.548;2023-05-27T01:39:49;7.00;96.20
71084;DHT22;58741;52.672;13.548;2023-05-27T01:42:16;6.90;96.30
71084;DHT22;58741;52.672;13.548;2023-05-27T01:44:42;6.90;96.20
71084;DHT22;58741;52.672;13.548;2023-05-27T01:47:08;6.90;96.30
71084;DHT22;58741;52.672;13.548;2023-05-27T01:49:34;6.80;96.00
71084;DHT22;58741;52.672;13.548;2023-05-27T01:52:01;6.80;96.10
71084;DHT22;58741;52.672;13.548;2023-05-27T01:54:26;6.80;96.30
71084;DHT22;58741;52.672;13.548;2023-05-27T01:56:52;6.80;96.40
71084;DHT22;58741;52.672;13.548;2023-05-27T01:59:18;6.70;96.80
71084;DHT22;58741;52.672;13.548;2023-05-27T02:01:44;6.70;96.70
71084;DHT22;58741;52.672;13.548;2023-05-27T02:04:10;6.70;96.60
71084;DHT22;58741;52.672;13.548;2023-05-27T02:06:35;6.60;96.60
71084;DHT22;58741;52.672;13.548;2023-05-27T02:09:02;6.60;96.70
71084;DHT22;58741;52.672;13.548;2023-05-27T02:11:28;6.60;96.80
71084;DHT22;58741;52.672;13.548;2023-05-27T02:13:54;6.50;97.00
71084;DHT22;58741;52.672;13.548;2023-05-27T02:16:21;6.50;97.20
71084;DHT22;58741;52.672;13.548;2023-05-27T02:18:50;6.50;97.30
71084;DHT22;58741;52.672;13.548;2023-05-27T02:21:16;6.50;97.60
71084;DHT22;58741;52.672;13.548;2023-05-27T02:23:43;6.50;97.70
71084;DHT22;58741;52.672;13.548;2023-05-27T02:26:09;6.40;97.70
71084;DHT22;58741;52.672;13.548;2023-05-27T02:28:35;6.40;97.80
71084;DHT22;58741;52.672;13.548;2023-05-27T02:31:00;6.40;97.90
71084;DHT22;58741;52.672;13.548;2023-05-27T02:33:26;6.30;97.90
71084;DHT22;58741;52.672;13.548;2023-05-27T02:35:51;6.30;97.90
71084;DHT22;58741;52.672;13.548;2023-05-27T02:38:17;6.30;98.00
71084;DHT22;58741;52.672;13.548;2023-05-27T02:40:43;6.30;97.90
71084;DHT22;58741;52.672;13.548;2023-05-27T02:43:08;6.20;98.00
71084;DHT22;58741;52.672;13.548;2023-05-27T02:45:34;6.20;98.00
71084;DHT22;58741;52.672;13.548;2023-05-27T02:48:00;6.20;98.00
71084;DHT22;58741;52.672;13.548;2023-05-27T02:50:28;6.10;98.20
71084;DHT22;58741;52.672;13.548;2023-05-27T02:52:54;6.10;98.20
71084;DHT22;58741;52.672;13.548;2023-05-27T02:55:20;6.10;98.40
71084;DHT22;58741;52.672;13.548;2023-05-27T02:57:46;6.10;98.80
71084;DHT22;58741;52.672;13.548;2023-05-27T03:00:12;6.10;98.40
71084;DHT22;58741;52.672;13.548;2023-05-27T03:02:39;6.00;98.10
71084;DHT22;58741;52.672;13.548;2023-05-27T03:05:06;6.00;98.20
71084;DHT22;58741;52.672;13.548;2023-05-27T03:07:31;6.00;98.10
71084;DHT22;58741;52.672;13.548;2023-05-27T03:09:57;6.00;98.20
71084;DHT22;58741;52.672;13.548;2023-05-27T03:12:25;5.90;98.30
71084;DHT22;58741;52.672;13.548;2023-05-27T03:14:51;5.90;98.40
71084;DHT22;58741;52.672;13.548;2023-05-27T03:17:18;5.90;98.70
71084;DHT22;58741;52.672;13.548;2023-05-27T03:19:46;5.90;98.80
71084;DHT22;58741;52.672;13.548;2023-05-27T03:22:11;5.90;98.80
71084;DHT22;58741;52.672;13.548;2023-05-27T03:24:37;5.90;98.70
71084;DHT22;58741;52.672;13.548;2023-05-27T03:27:03;5.90;98.60
71084;DHT22;58741;52.672;13.548;2023-05-27T03:29:31;5.80;98.60
71084;DHT22;58741;52.672;13.548;2023-05-27T03:31:56;5.80;98.60
71084;DHT22;58741;52.672;13.548;2023-05-27T03:34:23;5.80;98.90
71084;DHT22;58741;52.672;13.548;2023-05-27T03:36:48;5.80;98.90
71084;DHT22;58741;52.672;13.548;2023-05-27T03:39:18;5.80;99.10
71084;DHT22;58741;52.672;13.548;2023-05-27T03:41:50;5.80;99.40
71084;DHT22;58741;52.672;13.548;2023-05-27T03:44:16;5.80;99.70
71084;DHT22;58741;52.672;13.548;2023-05-27T03:46:42;5.90;99.90
71084;DHT22;58741;52.672;13.548;2023-05-27T03:49:07;5.90;99.80
71084;DHT22;58741;52.672;13.548;2023-05-27T03:51:34;5.90;99.90
71084;DHT22;58741;52.672;13.548;2023-05-27T03:54:00;5.90;99.90
71084;DHT22;58741;52.672;13.548;2023-05-27T03:56:28;5.90;99.90
71084;DHT22;58741;52.672;13.548;2023-05-27T03:58:54;5.90;99.70
71084;DHT22;58741;52.672;13.548;2023-05-27T04:01:20;5.90;99.60
71084;DHT22;58741;52.672;13.548;2023-05-27T04:03:49;6.00;99.40
71084;DHT22;58741;52.672;13.548;2023-05-27T04:06:15;6.00;99.60
71084;DHT22;58741;52.672;13.548;2023-05-27T04:08:41;6.00;99.80
71084;DHT22;58741;52.672;13.548;2023-05-27T04:11:10;6.10;99.90
71084;DHT22;58741;52.672;13.548;2023-05-27T04:13:36;6.10;99.90
71084;DHT22;58741;52.672;13.548;2023-05-27T04:16:01;6.10;99.90
71084;DHT22;58741;52.672;13.548;2023-05-27T04:18:27;6.20;99.70
71084;DHT22;58741;52.672;13.548;2023-05-27T04:20:53;6.20;99.70
71084;DHT22;58741;52.672;13.548;2023-05-27T04:23:18;6.30;99.70
71084;DHT22;58741;52.672;13.548;2023-05-27T04:25:44;6.40;99.50
71084;DHT22;58741;52.672;13.548;2023-05-27T04:28:11;6.40;99.40
71084;DHT22;58741;52.672;13.548;2023-05-27T04:30:41;6.50;99.60
71084;DHT22;58741;52.672;13.548;2023-05-27T04:33:15;6.60;99.90
71084;DHT22;58741;52.672;13.548;2023-05-27T04:35:41;6.70;99.90
71084;DHT22;58741;52.672;13.548;2023-05-27T04:38:12;6.70;99.90
71084;DHT22;58741;52.672;13.548;2023-05-27T04:40:52;6.90;99.90
71084;DHT22;58741;52.672;13.548;2023-05-27T04:43:28;6.90;99.90
71084;DHT22;58741;52.672;13.548;2023-05-27T04:45:55;7.10;99.90
71084;DHT22;58741;52.672;13.548;2023-05-27T04:48:22;7.20;99.90
71084;DHT22;58741;52.672;13.548;2023-05-27T04:50:51;7.30;99.90
71084;DHT22;58741;52.672;13.548;2023-05-27T04:53:20;7.40;99.90
71084;DHT22;58741;52.672;13.548;2023-05-27T04:55:47;7.60;99.90
71084;DHT22;58741;52.672;13.548;2023-05-27T04:58:12;7.70;99.90
71084;DHT22;58741;52.672;13.548;2023-05-27T05:00:39;7.80;99.90
71084;DHT22;58741;52.672;13.548;2023-05-27T05:03:19;7.90;99.90
71084;DHT22;58741;52.672;13.548;2023-05-27T05:05:49;8.20;99.90
71084;DHT22;58741;52.672;13.548;2023-05-27T05:08:17;8.30;99.90
71084;DHT22;58741;52.672;13.548;2023-05-27T05:10:43;8.50;99.90
71084;DHT22;58741;52.672;13.548;2023-05-27T05:13:08;8.60;99.90
71084;DHT22;58741;52.672;13.548;2023-05-27T05:15:35;8.80;99.90
71084;DHT22;58741;52.672;13.548;2023-05-27T05:18:03;9.00;99.90
71084;DHT22;58741;52.672;13.548;2023-05-27T05:20:28;9.10;99.90
71084;DHT22;58741;52.672;13.548;2023-05-27T05:22:54;9.30;99.90
71084;DHT22;58741;52.672;13.548;2023-05-27T05:25:22;9.50;99.90
71084;DHT22;58741;52.672;13.548;2023-05-27T05:27:51;9.70;99.90
71084;DHT22;58741;52.672;13.548;2023-05-27T05:30:17;9.90;99.90
71084;DHT22;58741;52.672;13.548;2023-05-27T05:32:43;10.20;99.90
71084;DHT22;58741;52.672;13.548;2023-05-27T05:35:08;10.40;99.90
71084;DHT22;58741;52.672;13.548;2023-05-27T05:37:35;10.70;99.90
71084;DHT22;58741;52.672;13.548;2023-05-27T05:40:01;11.00;99.90
71084;DHT22;58741;52.672;13.548;2023-05-27T05:42:27;11.20;99.90
71084;DHT22;58741;52.672;13.548;2023-05-27T05:44:53;11.50;99.90
71084;DHT22;58741;52.672;13.548;2023-05-27T05:47:19;11.70;99.90
71084;DHT22;58741;52.672;13.548;2023-05-27T05:49:52;12.00;99.90
71084;DHT22;58741;52.672;13.548;2023-05-27T05:52:18;12.20;99.90
71084;DHT22;58741;52.672;13.548;2023-05-27T05:54:46;12.40;99.50
71084;DHT22;58741;52.672;13.548;2023-05-27T05:57:11;12.60;99.10
71084;DHT22;58741;52.672;13.548;2023-05-27T05:59:37;12.80;98.80
71084;DHT22;58741;52.672;13.548;2023-05-27T06:02:03;13.00;97.80
71084;DHT22;58741;52.672;13.548;2023-05-27T06:04:29;13.30;97.90
71084;DHT22;58741;52.672;13.548;2023-05-27T06:06:55;13.50;95.50
71084;DHT22;58741;52.672;13.548;2023-05-27T06:09:28;13.70;95.10
71084;DHT22;58741;52.672;13.548;2023-05-27T06:11:57;13.90;94.30
71084;DHT22;58741;52.672;13.548;2023-05-27T06:14:23;14.10;93.90
71084;DHT22;58741;52.672;13.548;2023-05-27T06:16:50;14.30;93.00
71084;DHT22;58741;52.672;13.548;2023-05-27T06:19:16;14.50;91.90
71084;DHT22;58741;52.672;13.548;2023-05-27T06:21:42;14.80;90.40
71084;DHT22;58741;52.672;13.548;2023-05-27T06:24:27;15.00;90.20
71084;DHT22;58741;52.672;13.548;2023-05-27T06:27:15;15.20;85.90
71084;DHT22;58741;52.672;13.548;2023-05-27T06:29:41;15.40;86.40
71084;DHT22;58741;52.672;13.548;2023-05-27T06:32:08;15.60;84.70
71084;DHT22;58741;52.672;13.548;2023-05-27T06:34:34;15.70;82.60
71084;DHT22;58741;52.672;13.548;2023-05-27T06:36:59;15.90;80.30
71084;DHT22;58741;52.672;13.548;2023-05-27T06:39:25;16.10;81.20
71084;DHT22;58741;52.672;13.548;2023-05-27T06:41:51;16.20;80.50
71084;DHT22;58741;52.672;13.548;2023-05-27T06:44:38;16.40;78.90
71084;DHT22;58741;52.672;13.548;2023-05-27T06:47:14;16.70;79.00
71084;DHT22;58741;52.672;13.548;2023-05-27T06:49:41;16.80;76.40
71084;DHT22;58741;52.672;13.548;2023-05-27T06:54:30;17.10;72.10
71084;DHT22;58741;52.672;13.548;2023-05-27T06:57:15;17.20;71.40
71084;DHT22;58741;52.672;13.548;2023-05-27T06:59:50;17.40;70.80
71084;DHT22;58741;52.672;13.548;2023-05-27T07:02:16;17.50;71.00
71084;DHT22;58741;52.672;13.548;2023-05-27T07:04:42;17.70;68.80
71084;DHT22;58741;52.672;13.548;2023-05-27T07:07:09;17.90;65.60
71084;DHT22;58741;52.672;13.548;2023-05-27T07:09:34;17.90;62.10
71084;DHT22;58741;52.672;13.548;2023-05-27T07:12:01;18.00;65.40
71084;DHT22;58741;52.672;13.548;2023-05-27T07:14:49;18.20;64.60
71084;DHT22;58741;52.672;13.548;2023-05-27T07:17:15;18.30;63.30
71084;DHT22;58741;52.672;13.548;2023-05-27T07:19:41;18.40;64.20
71084;DHT22;58741;52.672;13.548;2023-05-27T07:22:12;18.60;62.60
71084;DHT22;58741;52.672;13.548;2023-05-27T07:24:37;18.80;62.70
71084;DHT22;58741;52.672;13.548;2023-05-27T07:27:04;18.90;62.90
71084;DHT22;58741;52.672;13.548;2023-05-27T07:29:31;19.00;58.70
71084;DHT22;58741;52.672;13.548;2023-05-27T07:32:17;19.00;60.40
71084;DHT22;58741;52.672;13.548;2023-05-27T07:34:43;19.20;61.00
71084;DHT22;58741;52.672;13.548;2023-05-27T07:37:08;19.30;58.40
71084;DHT22;58741;52.672;13.548;2023-05-27T07:39:34;19.40;58.60
71084;DHT22;58741;52.672;13.548;2023-05-27T07:44:15;19.70;58.40
71084;DHT22;58741;52.672;13.548;2023-05-27T07:46:41;19.80;59.30
71084;DHT22;58741;52.672;13.548;2023-05-27T07:49:07;20.00;55.60
71084;DHT22;58741;52.672;13.548;2023-05-27T07:51:38;20.10;58.20
71084;DHT22;58741;52.672;13.548;2023-05-27T07:54:04;20.20;57.60
71084;DHT22;58741;52.672;13.548;2023-05-27T07:56:29;20.30;56.50
71084;DHT22;58741;52.672;13.548;2023-05-27T07:58:55;20.50;56.20
71084;DHT22;58741;52.672;13.548;2023-05-27T08:01:21;20.60;57.10
71084;DHT22;58741;52.672;13.548;2023-05-27T08:03:51;20.70;57.20
71084;DHT22;58741;52.672;13.548;2023-05-27T08:06:27;20.90;56.70
71084;DHT22;58741;52.672;13.548;2023-05-27T08:09:12;21.00;56.00
71084;DHT22;58741;52.672;13.548;2023-05-27T08:11:58;21.20;54.60
71084;DHT22;58741;52.672;13.548;2023-05-27T08:14:34;21.30;54.20
71084;DHT22;58741;52.672;13.548;2023-05-27T08:17:28;21.30;47.80
71084;DHT22;58741;52.672;13.548;2023-05-27T08:19:54;21.20;52.40
71084;DHT22;58741;52.672;13.548;2023-05-27T08:22:43;21.20;53.90
71084;DHT22;58741;52.672;13.548;2023-05-27T08:25:30;21.40;53.00
71084;DHT22;58741;52.672;13.548;2023-05-27T08:28:18;21.50;51.80
71084;DHT22;58741;52.672;13.548;2023-05-27T08:31:11;21.70;52.00
71084;DHT22;58741;52.672;13.548;2023-05-27T08:33:40;21.80;49.40
71084;DHT22;58741;52.672;13.548;2023-05-27T08:36:06;21.90;50.70
71084;DHT22;58741;52.672;13.548;2023-05-27T08:38:32;22.10;50.20
71084;DHT22;58741;52.672;13.548;2023-05-27T08:43:22;22.30;48.30
71084;DHT22;58741;52.672;13.548;2023-05-27T08:45:48;22.40;48.90
71084;DHT22;58741;52.672;13.548;2023-05-27T08:48:15;22.50;48.70
71084;DHT22;58741;52.672;13.548;2023-05-27T08:50:42;22.60;49.70
71084;DHT22;58741;52.672;13.548;2023-05-27T08:53:09;22.70;49.30
71084;DHT22;58741;52.672;13.548;2023-05-27T08:55:37;22.80;48.90
71084;DHT22;58741;52.672;13.548;2023-05-27T08:58:05;22.90;43.20
71084;DHT22;58741;52.672;13.548;2023-05-27T09:00:36;22.90;45.90
71084;DHT22;58741;52.672;13.548;2023-05-27T09:03:12;23.00;47.60
71084;DHT22;58741;52.672;13.548;2023-05-27T09:05:38;23.00;48.10
71084;DHT22;58741;52.672;13.548;2023-05-27T09:08:04;23.20;46.50
71084;DHT22;58741;52.672;13.548;2023-05-27T09:10:40;23.30;47.50
71084;DHT22;58741;52.672;13.548;2023-05-27T09:13:06;23.30;45.40
71084;DHT22;58741;52.672;13.548;2023-05-27T09:15:32;23.40;45.20
71084;DHT22;58741;52.672;13.548;2023-05-27T09:17:58;23.50;46.70
71084;DHT22;58741;52.672;13.548;2023-05-27T09:20:28;23.50;45.20
71084;DHT22;58741;52.672;13.548;2023-05-27T09:23:04;23.50;44.30
71084;DHT22;58741;52.672;13.548;2023-05-27T09:25:30;23.60;44.60
71084;DHT22;58741;52.672;13.548;2023-05-27T09:27:56;23.60;45.60
71084;DHT22;58741;52.672;13.548;2023-05-27T09:30:22;23.80;46.80
71084;DHT22;58741;52.672;13.548;2023-05-27T09:32:49;23.80;45.90
71084;DHT22;58741;52.672;13.548;2023-05-27T09:35:16;23.90;45.00
71084;DHT22;58741;52.672;13.548;2023-05-27T09:37:42;24.00;46.50
71084;DHT22;58741;52.672;13.548;2023-05-27T09:40:12;24.00;45.80
71084;DHT22;58741;52.672;13.548;2023-05-27T09:42:42;24.00;44.10
71084;DHT22;58741;52.672;13.548;2023-05-27T09:45:19;24.00;43.30
71084;DHT22;58741;52.672;13.548;2023-05-27T09:47:51;24.10;46.30
71084;DHT22;58741;52.672;13.548;2023-05-27T09:50:18;24.20;43.60
71084;DHT22;58741;52.672;13.548;2023-05-27T09:52:44;24.30;45.50
71084;DHT22;58741;52.672;13.548;2023-05-27T09:55:12;24.40;44.60
71084;DHT22;58741;52.672;13.548;2023-05-27T09:57:40;24.40;45.10
71084;DHT22;58741;52.672;13.548;2023-05-27T10:00:08;24.60;43.00
71084;DHT22;58741;52.672;13.548;2023-05-27T10:02:49;24.60;44.30
71084;DHT22;58741;52.672;13.548;2023-05-27T10:05:17;24.60;43.50
71084;DHT22;58741;52.672;13.548;2023-05-27T10:07:46;24.80;40.90
71084;DHT22;58741;52.672;13.548;2023-05-27T10:10:16;24.90;42.70
71084;DHT22;58741;52.672;13.548;2023-05-27T10:12:43;24.90;41.20
71084;DHT22;58741;52.672;13.548;2023-05-27T10:15:09;24.80;43.50
71084;DHT22;58741;52.672;13.548;2023-05-27T10:17:56;24.80;43.60
71084;DHT22;58741;52.672;13.548;2023-05-27T10:23:16;25.00;43.80
71084;DHT22;58741;52.672;13.548;2023-05-27T10:28:27;25.20;43.00
71084;DHT22;58741;52.672;13.548;2023-05-27T10:31:03;25.30;40.90
71084;DHT22;58741;52.672;13.548;2023-05-27T10:33:29;25.40;43.10
71084;DHT22;58741;52.672;13.548;2023-05-27T10:35:56;25.40;42.50
71084;DHT22;58741;52.672;13.548;2023-05-27T10:38:27;25.50;43.10
71084;DHT22;58741;52.672;13.548;2023-05-27T10:40:59;25.50;40.80
71084;DHT22;58741;52.672;13.548;2023-05-27T10:44:00;25.60;41.40
71084;DHT22;58741;52.672;13.548;2023-05-27T10:46:26;25.60;41.40
71084;DHT22;58741;52.672;13.548;2023-05-27T10:48:52;25.60;40.60
71084;DHT22;58741;52.672;13.548;2023-05-27T10:51:17;25.60;40.30
71084;DHT22;58741;52.672;13.548;2023-05-27T10:53:43;25.60;41.10
71084;DHT22;58741;52.672;13.548;2023-05-27T10:56:09;25.70;40.90
71084;DHT22;58741;52.672;13.548;2023-05-27T10:58:37;25.80;42.00
71084;DHT22;58741;52.672;13.548;2023-05-27T11:01:10;25.90;42.70
71084;DHT22;58741;52.672;13.548;2023-05-27T11:03:45;26.00;41.20
71084;DHT22;58741;52.672;13.548;2023-05-27T11:06:11;26.10;40.90
71084;DHT22;58741;52.672;13.548;2023-05-27T11:08:39;26.10;40.80
71084;DHT22;58741;52.672;13.548;2023-05-27T11:11:11;26.10;40.40
71084;DHT22;58741;52.672;13.548;2023-05-27T11:13:44;26.10;40.10
71084;DHT22;58741;52.672;13.548;2023-05-27T11:16:12;25.80;39.00
71084;DHT22;58741;52.672;13.548;2023-05-27T11:18:43;25.80;41.30
71084;DHT22;58741;52.672;13.548;2023-05-27T11:21:10;25.80;42.10
71084;DHT22;58741;52.672;13.548;2023-05-27T11:23:43;25.90;40.00
71084;DHT22;58741;52.672;13.548;2023-05-27T11:26:17;25.90;41.60
71084;DHT22;58741;52.672;13.548;2023-05-27T11:31:16;26.10;41.90
71084;DHT22;58741;52.672;13.548;2023-05-27T11:33:43;26.30;40.50
71084;DHT22;58741;52.672;13.548;2023-05-27T11:36:13;26.20;39.60
71084;DHT22;58741;52.672;13.548;2023-05-27T11:38:56;26.10;39.70
71084;DHT22;58741;52.672;13.548;2023-05-27T11:41:25;26.10;41.90
71084;DHT22;58741;52.672;13.548;2023-05-27T11:44:04;26.20;41.40
71084;DHT22;58741;52.672;13.548;2023-05-27T11:46:41;26.30;41.10
71084;DHT22;58741;52.672;13.548;2023-05-27T11:49:08;26.40;39.80
71084;DHT22;58741;52.672;13.548;2023-05-27T11:51:39;26.40;39.00
71084;DHT22;58741;52.672;13.548;2023-05-27T11:54:05;26.40;40.50
71084;DHT22;58741;52.672;13.548;2023-05-27T11:56:30;26.50;40.10
71084;DHT22;58741;52.672;13.548;2023-05-27T11:58:56;26.60;40.00
71084;DHT22;58741;52.672;13.548;2023-05-27T12:01:22;26.60;38.70
71084;DHT22;58741;52.672;13.548;2023-05-27T12:03:48;26.60;38.10
71084;DHT22;58741;52.672;13.548;2023-05-27T12:06:14;26.60;39.70
71084;DHT22;58741;52.672;13.548;2023-05-27T12:08:41;26.60;38.40
71084;DHT22;58741;52.672;13.548;2023-05-27T12:11:07;26.60;39.60
71084;DHT22;58741;52.672;13.548;2023-05-27T12:13:47;26.70;39.50
71084;DHT22;58741;52.672;13.548;2023-05-27T12:16:13;26.70;40.40
71084;DHT22;58741;52.672;13.548;2023-05-27T12:18:38;26.80;40.10
71084;DHT22;58741;52.672;13.548;2023-05-27T12:21:07;26.90;36.70
71084;DHT22;58741;52.672;13.548;2023-05-27T12:23:33;26.80;39.30
71084;DHT22;58741;52.672;13.548;2023-05-27T12:25:59;26.90;39.60
71084;DHT22;58741;52.672;13.548;2023-05-27T12:28:24;26.90;37.90
71084;DHT22;58741;52.672;13.548;2023-05-27T12:30:51;27.00;38.60
71084;DHT22;58741;52.672;13.548;2023-05-27T12:33:17;27.00;39.00
71084;DHT22;58741;52.672;13.548;2023-05-27T12:35:42;27.10;39.00
71084;DHT22;58741;52.672;13.548;2023-05-27T12:38:08;27.20;39.30
71084;DHT22;58741;52.672;13.548;2023-05-27T12:40:33;27.20;38.80
71084;DHT22;58741;52.672;13.548;2023-05-27T12:43:44;27.20;38.30
71084;DHT22;58741;52.672;13.548;2023-05-27T12:46:09;27.40;38.90
71084;DHT22;58741;52.672;13.548;2023-05-27T12:48:35;27.40;38.40
71084;DHT22;58741;52.672;13.548;2023-05-27T12:51:00;27.50;38.50
71084;DHT22;58741;52.672;13.548;2023-05-27T12:53:26;27.50;39.20
71084;DHT22;58741;52.672;13.548;2023-05-27T12:55:51;27.60;38.80
71084;DHT22;58741;52.672;13.548;2023-05-27T12:58:17;27.60;38.90
71084;DHT22;58741;52.672;13.548;2023-05-27T13:00:42;27.70;38.60
71084;DHT22;58741;52.672;13.548;2023-05-27T13:03:09;27.70;38.60
71084;DHT22;58741;52.672;13.548;2023-05-27T13:05:35;27.70;37.20
71084;DHT22;58741;52.672;13.548;2023-05-27T13:08:03;27.70;37.80
71084;DHT22;58741;52.672;13.548;2023-05-27T13:10:30;27.70;37.40
71084;DHT22;58741;52.672;13.548;2023-05-27T13:12:57;27.70;37.20
71084;DHT22;58741;52.672;13.548;2023-05-27T13:15:22;27.70;37.90
71084;DHT22;58741;52.672;13.548;2023-05-27T13:17:51;27.80;37.90
71084;DHT22;58741;52.672;13.548;2023-05-27T13:20:17;27.90;37.60
71084;DHT22;58741;52.672;13.548;2023-05-27T13:22:44;27.80;36.20
71084;DHT22;58741;52.672;13.548;2023-05-27T13:25:11;27.90;37.70
71084;DHT22;58741;52.672;13.548;2023-05-27T13:27:40;27.90;36.70
71084;DHT22;58741;52.672;13.548;2023-05-27T13:30:14;27.90;36.50
71084;DHT22;58741;52.672;13.548;2023-05-27T13:32:43;28.00;37.40
71084;DHT22;58741;52.672;13.548;2023-05-27T13:35:09;28.00;36.80
71084;DHT22;58741;52.672;13.548;2023-05-27T13:37:37;28.00;38.40
71084;DHT22;58741;52.672;13.548;2023-05-27T13:40:02;28.10;37.50
71084;DHT22;58741;52.672;13.548;2023-05-27T13:42:28;28.10;38.30
71084;DHT22;58741;52.672;13.548;2023-05-27T13:44:54;28.20;38.20
71084;DHT22;58741;52.672;13.548;2023-05-27T13:47:19;28.30;39.20
71084;DHT22;58741;52.672;13.548;2023-05-27T13:49:45;28.30;38.10
71084;DHT22;58741;52.672;13.548;2023-05-27T13:52:10;28.30;36.60
71084;DHT22;58741;52.672;13.548;2023-05-27T13:54:36;28.40;38.40
71084;DHT22;58741;52.672;13.548;2023-05-27T13:57:02;28.30;38.70
71084;DHT22;58741;52.672;13.548;2023-05-27T14:01:57;28.10;37.10
71084;DHT22;58741;52.672;13.548;2023-05-27T14:04:22;27.90;37.90
71084;DHT22;58741;52.672;13.548;2023-05-27T14:06:48;27.80;38.70
71084;DHT22;58741;52.672;13.548;2023-05-27T14:09:14;27.80;38.40
71084;DHT22;58741;52.672;13.548;2023-05-27T14:11:40;27.70;38.10
71084;DHT22;58741;52.672;13.548;2023-05-27T14:14:06;27.70;39.40
71084;DHT22;58741;52.672;13.548;2023-05-27T14:16:31;27.70;39.50
71084;DHT22;58741;52.672;13.548;2023-05-27T14:18:57;27.70;39.10
71084;DHT22;58741;52.672;13.548;2023-05-27T14:21:22;27.60;38.80
71084;DHT22;58741;52.672;13.548;2023-05-27T14:23:48;27.60;39.10
71084;DHT22;58741;52.672;13.548;2023-05-27T14:26:13;27.60;39.20
71084;DHT22;58741;52.672;13.548;2023-05-27T14:28:40;27.50;38.60
71084;DHT22;58741;52.672;13.548;2023-05-27T14:31:06;27.50;39.20
71084;DHT22;58741;52.672;13.548;2023-05-27T14:33:32;27.50;39.30
71084;DHT22;58741;52.672;13.548;2023-05-27T14:35:57;27.60;38.40
71084;DHT22;58741;52.672;13.548;2023-05-27T14:38:23;27.70;40.10
71084;DHT22;58741;52.672;13.548;2023-05-27T14:40:48;27.70;39.60
71084;DHT22;58741;52.672;13.548;2023-05-27T14:43:15;27.80;38.50
71084;DHT22;58741;52.672;13.548;2023-05-27T14:45:41;27.80;38.60
71084;DHT22;58741;52.672;13.548;2023-05-27T14:48:07;27.80;39.70
71084;DHT22;58741;52.672;13.548;2023-05-27T14:50:33;27.80;38.80
71084;DHT22;58741;52.672;13.548;2023-05-27T14:52:59;27.80;38.40
71084;DHT22;58741;52.672;13.548;2023-05-27T14:55:24;27.90;39.30
71084;DHT22;58741;52.672;13.548;2023-05-27T14:57:51;27.90;38.70
71084;DHT22;58741;52.672;13.548;2023-05-27T15:00:17;27.80;39.00
71084;DHT22;58741;52.672;13.548;2023-05-27T15:02:43;27.80;38.70
71084;DHT22;58741;52.672;13.548;2023-05-27T15:05:09;27.80;39.00
71084;DHT22;58741;52.672;13.548;2023-05-27T15:07:35;27.70;41.10
71084;DHT22;58741;52.672;13.548;2023-05-27T15:10:02;27.70;39.20
71084;DHT22;58741;52.672;13.548;2023-05-27T15:12:41;27.70;39.20
71084;DHT22;58741;52.672;13.548;2023-05-27T15:15:10;27.70;38.60
71084;DHT22;58741;52.672;13.548;2023-05-27T15:17:37;27.50;37.70
71084;DHT22;58741;52.672;13.548;2023-05-27T15:20:03;27.30;38.80
71084;DHT22;58741;52.672;13.548;2023-05-27T15:22:30;27.20;38.50
71084;DHT22;58741;52.672;13.548;2023-05-27T15:24:56;27.00;38.10
71084;DHT22;58741;52.672;13.548;2023-05-27T15:27:21;27.10;38.90
71084;DHT22;58741;52.672;13.548;2023-05-27T15:29:47;27.20;40.10
71084;DHT22;58741;52.672;13.548;2023-05-27T15:32:13;27.20;39.20
71084;DHT22;58741;52.672;13.548;2023-05-27T15:34:38;27.30;38.10
71084;DHT22;58741;52.672;13.548;2023-05-27T15:37:04;27.20;38.50
71084;DHT22;58741;52.672;13.548;2023-05-27T15:39:29;27.20;39.00
71084;DHT22;58741;52.672;13.548;2023-05-27T15:41:55;27.20;38.60
71084;DHT22;58741;52.672;13.548;2023-05-27T15:44:21;27.20;37.80
71084;DHT22;58741;52.672;13.548;2023-05-27T15:46:46;27.00;38.80
71084;DHT22;58741;52.672;13.548;2023-05-27T15:49:13;27.00;38.70